sensor_id;sensor_type;location;lat;lon;timestamp;P1;durP1;ratioP1;P2;durP2;ratioP2
66567;SDS011;53422;49.296;6.900;2022-09-12T00:00:40;4.60;;;3.38;;
66567;SDS011;53422;49.296;6.900;2022-09-12T00:03:06;6.70;;;3.55;;
66567;SDS011;53422;49.296;6.900;2022-09-12T00:05:31;4.30;;;2.92;;
66567;SDS011;53422;49.296;6.900;2022-09-12T00:07:57;5.10;;;3.05;;
66567;SDS011;53422;49.296;6.900;2022-09-12T00:10:24;7.20;;;3.28;;
66567;SDS011;53422;49.296;6.900;2022-09-12T00:12:50;4.65;;;3.60;;
66567;SDS011;53422;49.296;6.900;2022-09-12T00:15:16;4.50;;;3.08;;
66567;SDS011;53422;49.296;6.900;2022-09-12T00:17:42;6.00;;;3.20;;
66567;SDS011;53422;49.296;6.900;2022-09-12T00:20:08;6.10;;;3.38;;
66567;SDS011;53422;49.296;6.900;2022-09-12T00:22:35;6.28;;;3.60;;
66567;SDS011;53422;49.296;6.900;2022-09-12T00:25:01;6.18;;;3.28;;
66567;SDS011;53422;49.296;6.900;2022-09-12T00:27:27;5.10;;;3.13;;
66567;SDS011;53422;49.296;6.900;2022-09-12T00:29:53;10.30;;;3.35;;
66567;SDS011;53422;49.296;6.900;2022-09-12T00:32:19;5.60;;;3.10;;
66567;SDS011;53422;49.296;6.900;2022-09-12T00:34:45;6.38;;;3.72;;
66567;SDS011;53422;49.296;6.900;2022-09-12T00:37:10;5.07;;;3.08;;
66567;SDS011;53422;49.296;6.900;2022-09-12T00:39:36;4.32;;;3.00;;
66567;SDS011;53422;49.296;6.900;2022-09-12T00:42:01;7.63;;;3.92;;
66567;SDS011;53422;49.296;6.900;2022-09-12T00:52:02;4.88;;;3.05;;
66567;SDS011;53422;49.296;6.900;2022-09-12T00:54:31;6.63;;;3.58;;
66567;SDS011;53422;49.296;6.900;2022-09-12T00:57:21;5.35;;;3.08;;
66567;SDS011;53422;49.296;6.900;2022-09-12T00:59:52;5.57;;;2.42;;
66567;SDS011;53422;49.296;6.900;2022-09-12T01:02:25;5.20;;;3.13;;
66567;SDS011;53422;49.296;6.900;2022-09-12T01:04:51;4.47;;;3.13;;
66567;SDS011;53422;49.296;6.900;2022-09-12T01:07:17;5.10;;;3.28;;
66567;SDS011;53422;49.296;6.900;2022-09-12T01:09:44;5.82;;;3.20;;
66567;SDS011;53422;49.296;6.900;2022-09-12T01:12:11;5.38;;;3.30;;
66567;SDS011;53422;49.296;6.900;2022-09-12T01:14:39;6.18;;;3.20;;
66567;SDS011;53422;49.296;6.900;2022-09-12T01:17:04;5.35;;;3.03;;
66567;SDS011;53422;49.296;6.900;2022-09-12T01:27:44;5.25;;;3.30;;
66567;SDS011;53422;49.296;6.900;2022-09-12T01:33:05;5.05;;;2.97;;
66567;SDS011;53422;49.296;6.900;2022-09-12T01:43:49;4.80;;;3.10;;
66567;SDS011;53422;49.296;6.900;2022-09-12T01:49:16;5.43;;;3.58;;
66567;SDS011;53422;49.296;6.900;2022-09-12T01:54:45;4.70;;;3.15;;
66567;SDS011;53422;49.296;6.900;2022-09-12T01:57:24;4.65;;;3.55;;
66567;SDS011;53422;49.296;6.900;2022-09-12T01:59:57;5.55;;;3.33;;
66567;SDS011;53422;49.296;6.900;2022-09-12T02:02:35;4.32;;;2.40;;
66567;SDS011;53422;49.296;6.900;2022-09-12T02:05:21;6.45;;;3.17;;
66567;SDS011;53422;49.296;6.900;2022-09-12T02:08:00;5.57;;;3.20;;
66567;SDS011;53422;49.296;6.900;2022-09-12T02:13:24;6.88;;;4.00;;
66567;SDS011;53422;49.296;6.900;2022-09-12T02:16:08;5.47;;;3.60;;
66567;SDS011;53422;49.296;6.900;2022-09-12T02:18:38;5.13;;;3.13;;
66567;SDS011;53422;49.296;6.900;2022-09-12T02:21:07;7.40;;;3.20;;
66567;SDS011;53422;49.296;6.900;2022-09-12T02:23:33;5.53;;;3.50;;
66567;SDS011;53422;49.296;6.900;2022-09-12T02:26:07;5.38;;;3.20;;
66567;SDS011;53422;49.296;6.900;2022-09-12T02:28:40;5.13;;;3.08;;
66567;SDS011;53422;49.296;6.900;2022-09-12T02:33:37;5.13;;;2.60;;
66567;SDS011;53422;49.296;6.900;2022-09-12T02:36:17;6.40;;;2.97;;
66567;SDS011;53422;49.296;6.900;2022-09-12T02:39:01;5.72;;;3.55;;
66567;SDS011;53422;49.296;6.900;2022-09-12T02:41:27;7.13;;;3.40;;
66567;SDS011;53422;49.296;6.900;2022-09-12T02:43:53;5.80;;;3.35;;
66567;SDS011;53422;49.296;6.900;2022-09-12T02:46:26;4.50;;;2.88;;
66567;SDS011;53422;49.296;6.900;2022-09-12T02:48:55;5.60;;;2.88;;
66567;SDS011;53422;49.296;6.900;2022-09-12T02:51:22;4.18;;;2.63;;
66567;SDS011;53422;49.296;6.900;2022-09-12T02:53:48;6.47;;;3.55;;
66567;SDS011;53422;49.296;6.900;2022-09-12T02:56:16;4.22;;;3.05;;
66567;SDS011;53422;49.296;6.900;2022-09-12T02:58:46;4.35;;;3.05;;
66567;SDS011;53422;49.296;6.900;2022-09-12T03:01:32;6.07;;;3.38;;
66567;SDS011;53422;49.296;6.900;2022-09-12T03:06:51;5.57;;;3.40;;
66567;SDS011;53422;49.296;6.900;2022-09-12T03:12:25;5.85;;;3.25;;
66567;SDS011;53422;49.296;6.900;2022-09-12T03:20:21;5.55;;;3.45;;
66567;SDS011;53422;49.296;6.900;2022-09-12T03:28:15;4.47;;;3.03;;
66567;SDS011;53422;49.296;6.900;2022-09-12T03:30:45;7.93;;;3.40;;
66567;SDS011;53422;49.296;6.900;2022-09-12T03:33:13;7.53;;;3.28;;
66567;SDS011;53422;49.296;6.900;2022-09-12T03:35:40;5.50;;;3.03;;
66567;SDS011;53422;49.296;6.900;2022-09-12T03:38:07;4.60;;;3.72;;
66567;SDS011;53422;49.296;6.900;2022-09-12T03:40:33;6.25;;;3.45;;
66567;SDS011;53422;49.296;6.900;2022-09-12T03:43:00;4.18;;;2.85;;
66567;SDS011;53422;49.296;6.900;2022-09-12T03:45:26;5.22;;;3.40;;
66567;SDS011;53422;49.296;6.900;2022-09-12T03:47:51;5.18;;;3.10;;
66567;SDS011;53422;49.296;6.900;2022-09-12T03:50:17;4.78;;;3.08;;
66567;SDS011;53422;49.296;6.900;2022-09-12T03:52:43;4.65;;;3.85;;
66567;SDS011;53422;49.296;6.900;2022-09-12T03:55:08;5.18;;;3.00;;
66567;SDS011;53422;49.296;6.900;2022-09-12T03:57:34;4.63;;;3.15;;
66567;SDS011;53422;49.296;6.900;2022-09-12T03:59:59;4.75;;;3.20;;
66567;SDS011;53422;49.296;6.900;2022-09-12T04:02:26;5.30;;;3.38;;
66567;SDS011;53422;49.296;6.900;2022-09-12T04:04:52;6.15;;;3.10;;
66567;SDS011;53422;49.296;6.900;2022-09-12T04:07:17;5.15;;;3.33;;
66567;SDS011;53422;49.296;6.900;2022-09-12T04:09:43;6.53;;;3.40;;
66567;SDS011;53422;49.296;6.900;2022-09-12T04:12:09;5.07;;;3.25;;
66567;SDS011;53422;49.296;6.900;2022-09-12T04:14:34;6.68;;;3.10;;
66567;SDS011;53422;49.296;6.900;2022-09-12T04:17:00;5.60;;;3.42;;
66567;SDS011;53422;49.296;6.900;2022-09-12T04:19:26;5.15;;;3.28;;
66567;SDS011;53422;49.296;6.900;2022-09-12T04:21:52;4.30;;;3.10;;
66567;SDS011;53422;49.296;6.900;2022-09-12T04:24:17;6.93;;;3.78;;
66567;SDS011;53422;49.296;6.900;2022-09-12T04:26:43;5.25;;;3.10;;
66567;SDS011;53422;49.296;6.900;2022-09-12T04:29:12;5.13;;;3.63;;
66567;SDS011;53422;49.296;6.900;2022-09-12T04:31:39;5.90;;;3.60;;
66567;SDS011;53422;49.296;6.900;2022-09-12T04:34:05;5.43;;;3.10;;
66567;SDS011;53422;49.296;6.900;2022-09-12T04:36:31;7.82;;;3.72;;
66567;SDS011;53422;49.296;6.900;2022-09-12T04:38:59;7.80;;;3.90;;
66567;SDS011;53422;49.296;6.900;2022-09-12T04:41:30;4.68;;;3.00;;
66567;SDS011;53422;49.296;6.900;2022-09-12T04:48:53;5.97;;;3.60;;
66567;SDS011;53422;49.296;6.900;2022-09-12T04:51:20;7.15;;;3.38;;
66567;SDS011;53422;49.296;6.900;2022-09-12T04:53:52;6.85;;;3.80;;
66567;SDS011;53422;49.296;6.900;2022-09-12T04:56:23;5.03;;;3.00;;
66567;SDS011;53422;49.296;6.900;2022-09-12T04:58:49;4.80;;;3.10;;
66567;SDS011;53422;49.296;6.900;2022-09-12T05:01:16;6.50;;;4.10;;
66567;SDS011;53422;49.296;6.900;2022-09-12T05:03:46;6.70;;;3.78;;
66567;SDS011;53422;49.296;6.900;2022-09-12T05:06:14;7.32;;;3.63;;
66567;SDS011;53422;49.296;6.900;2022-09-12T05:11:07;5.38;;;3.13;;
66567;SDS011;53422;49.296;6.900;2022-09-12T05:13:37;5.75;;;3.30;;
66567;SDS011;53422;49.296;6.900;2022-09-12T05:16:04;7.75;;;3.72;;
66567;SDS011;53422;49.296;6.900;2022-09-12T05:18:32;5.78;;;3.15;;
66567;SDS011;53422;49.296;6.900;2022-09-12T05:20:59;6.25;;;3.45;;
66567;SDS011;53422;49.296;6.900;2022-09-12T05:23:26;5.05;;;4.10;;
66567;SDS011;53422;49.296;6.900;2022-09-12T05:25:53;5.50;;;3.47;;
66567;SDS011;53422;49.296;6.900;2022-09-12T05:28:20;6.10;;;3.60;;
66567;SDS011;53422;49.296;6.900;2022-09-12T05:30:47;6.22;;;3.40;;
66567;SDS011;53422;49.296;6.900;2022-09-12T05:33:23;5.95;;;3.97;;
66567;SDS011;53422;49.296;6.900;2022-09-12T05:35:51;5.40;;;3.20;;
66567;SDS011;53422;49.296;6.900;2022-09-12T05:38:17;5.63;;;3.75;;
66567;SDS011;53422;49.296;6.900;2022-09-12T05:40:43;6.55;;;3.17;;
66567;SDS011;53422;49.296;6.900;2022-09-12T05:43:08;7.30;;;3.67;;
66567;SDS011;53422;49.296;6.900;2022-09-12T05:45:36;5.88;;;3.38;;
66567;SDS011;53422;49.296;6.900;2022-09-12T05:48:02;5.18;;;3.35;;
66567;SDS011;53422;49.296;6.900;2022-09-12T05:50:28;6.18;;;3.78;;
66567;SDS011;53422;49.296;6.900;2022-09-12T05:52:55;6.05;;;3.80;;
66567;SDS011;53422;49.296;6.900;2022-09-12T05:55:21;5.57;;;3.55;;
66567;SDS011;53422;49.296;6.900;2022-09-12T05:57:47;5.50;;;3.33;;
66567;SDS011;53422;49.296;6.900;2022-09-12T06:00:13;8.65;;;4.40;;
66567;SDS011;53422;49.296;6.900;2022-09-12T06:02:39;6.18;;;3.50;;
66567;SDS011;53422;49.296;6.900;2022-09-12T06:05:04;5.50;;;3.42;;
66567;SDS011;53422;49.296;6.900;2022-09-12T06:07:30;6.00;;;3.53;;
66567;SDS011;53422;49.296;6.900;2022-09-12T06:09:56;8.88;;;3.95;;
66567;SDS011;53422;49.296;6.900;2022-09-12T06:12:23;6.43;;;3.70;;
66567;SDS011;53422;49.296;6.900;2022-09-12T06:14:50;7.88;;;3.60;;
66567;SDS011;53422;49.296;6.900;2022-09-12T06:17:16;8.15;;;3.33;;
66567;SDS011;53422;49.296;6.900;2022-09-12T06:19:42;7.25;;;3.92;;
66567;SDS011;53422;49.296;6.900;2022-09-12T06:22:09;6.38;;;4.05;;
66567;SDS011;53422;49.296;6.900;2022-09-12T06:24:35;11.75;;;4.53;;
66567;SDS011;53422;49.296;6.900;2022-09-12T06:27:00;7.05;;;3.63;;
66567;SDS011;53422;49.296;6.900;2022-09-12T06:29:26;8.80;;;4.72;;
66567;SDS011;53422;49.296;6.900;2022-09-12T06:31:53;10.27;;;3.97;;
66567;SDS011;53422;49.296;6.900;2022-09-12T06:34:18;8.57;;;4.22;;
66567;SDS011;53422;49.296;6.900;2022-09-12T06:36:45;7.18;;;4.15;;
66567;SDS011;53422;49.296;6.900;2022-09-12T06:39:13;6.38;;;3.90;;
66567;SDS011;53422;49.296;6.900;2022-09-12T06:41:43;7.32;;;4.13;;
66567;SDS011;53422;49.296;6.900;2022-09-12T06:44:13;7.55;;;3.03;;
66567;SDS011;53422;49.296;6.900;2022-09-12T06:46:41;6.32;;;3.55;;
66567;SDS011;53422;49.296;6.900;2022-09-12T06:49:07;7.00;;;4.15;;
66567;SDS011;53422;49.296;6.900;2022-09-12T06:51:32;6.22;;;4.03;;
66567;SDS011;53422;49.296;6.900;2022-09-12T06:54:00;8.80;;;4.15;;
66567;SDS011;53422;49.296;6.900;2022-09-12T06:56:27;5.93;;;3.80;;
66567;SDS011;53422;49.296;6.900;2022-09-12T06:58:54;8.85;;;4.03;;
66567;SDS011;53422;49.296;6.900;2022-09-12T07:01:21;6.95;;;3.92;;
66567;SDS011;53422;49.296;6.900;2022-09-12T07:03:50;9.43;;;4.68;;
66567;SDS011;53422;49.296;6.900;2022-09-12T07:06:25;8.35;;;4.57;;
66567;SDS011;53422;49.296;6.900;2022-09-12T07:08:59;10.10;;;5.03;;
66567;SDS011;53422;49.296;6.900;2022-09-12T07:11:27;7.63;;;4.82;;
66567;SDS011;53422;49.296;6.900;2022-09-12T07:13:56;9.85;;;5.05;;
66567;SDS011;53422;49.296;6.900;2022-09-12T07:16:23;7.45;;;4.57;;
66567;SDS011;53422;49.296;6.900;2022-09-12T07:18:53;8.27;;;5.50;;
66567;SDS011;53422;49.296;6.900;2022-09-12T07:21:20;7.93;;;4.80;;
66567;SDS011;53422;49.296;6.900;2022-09-12T07:23:46;11.60;;;6.25;;
66567;SDS011;53422;49.296;6.900;2022-09-12T07:26:12;9.38;;;5.65;;
66567;SDS011;53422;49.296;6.900;2022-09-12T07:28:39;9.95;;;5.18;;
66567;SDS011;53422;49.296;6.900;2022-09-12T07:31:06;8.13;;;4.68;;
66567;SDS011;53422;49.296;6.900;2022-09-12T07:33:40;9.10;;;5.28;;
66567;SDS011;53422;49.296;6.900;2022-09-12T07:36:08;7.93;;;4.70;;
66567;SDS011;53422;49.296;6.900;2022-09-12T07:38:37;9.75;;;5.50;;
66567;SDS011;53422;49.296;6.900;2022-09-12T07:41:36;9.38;;;5.68;;
66567;SDS011;53422;49.296;6.900;2022-09-12T07:43:56;8.48;;;5.13;;
66567;SDS011;53422;49.296;6.900;2022-09-12T07:46:24;15.13;;;5.45;;
66567;SDS011;53422;49.296;6.900;2022-09-12T07:48:51;8.75;;;5.30;;
66567;SDS011;53422;49.296;6.900;2022-09-12T07:51:19;8.52;;;5.13;;
66567;SDS011;53422;49.296;6.900;2022-09-12T07:53:45;9.52;;;5.43;;
66567;SDS011;53422;49.296;6.900;2022-09-12T07:56:12;9.00;;;4.90;;
66567;SDS011;53422;49.296;6.900;2022-09-12T07:58:40;8.65;;;4.80;;
66567;SDS011;53422;49.296;6.900;2022-09-12T08:03:43;6.63;;;3.90;;
66567;SDS011;53422;49.296;6.900;2022-09-12T08:06:12;7.30;;;4.40;;
66567;SDS011;53422;49.296;6.900;2022-09-12T08:08:45;6.18;;;3.83;;
66567;SDS011;53422;49.296;6.900;2022-09-12T08:11:12;8.75;;;4.40;;
66567;SDS011;53422;49.296;6.900;2022-09-12T08:13:39;8.15;;;5.15;;
66567;SDS011;53422;49.296;6.900;2022-09-12T08:16:10;9.48;;;4.95;;
66567;SDS011;53422;49.296;6.900;2022-09-12T08:18:38;6.07;;;3.50;;
66567;SDS011;53422;49.296;6.900;2022-09-12T08:21:05;5.03;;;3.33;;
66567;SDS011;53422;49.296;6.900;2022-09-12T08:23:36;5.75;;;3.50;;
66567;SDS011;53422;49.296;6.900;2022-09-12T08:26:02;5.30;;;3.03;;
66567;SDS011;53422;49.296;6.900;2022-09-12T08:28:30;6.72;;;3.90;;
66567;SDS011;53422;49.296;6.900;2022-09-12T08:31:00;4.95;;;3.00;;
66567;SDS011;53422;49.296;6.900;2022-09-12T08:33:30;4.75;;;3.20;;
66567;SDS011;53422;49.296;6.900;2022-09-12T08:38:40;4.05;;;2.78;;
66567;SDS011;53422;49.296;6.900;2022-09-12T08:46:18;5.50;;;3.22;;
66567;SDS011;53422;49.296;6.900;2022-09-12T08:48:49;3.38;;;2.78;;
66567;SDS011;53422;49.296;6.900;2022-09-12T08:51:16;4.38;;;3.13;;
66567;SDS011;53422;49.296;6.900;2022-09-12T08:53:45;5.07;;;2.72;;
66567;SDS011;53422;49.296;6.900;2022-09-12T08:56:13;5.25;;;3.30;;
66567;SDS011;53422;49.296;6.900;2022-09-12T08:58:40;4.60;;;3.22;;
66567;SDS011;53422;49.296;6.900;2022-09-12T09:19:45;4.07;;;2.78;;
66567;SDS011;53422;49.296;6.900;2022-09-12T09:22:20;5.55;;;2.83;;
66567;SDS011;53422;49.296;6.900;2022-09-12T09:25:01;3.97;;;2.75;;
66567;SDS011;53422;49.296;6.900;2022-09-12T09:30:15;4.60;;;2.97;;
66567;SDS011;53422;49.296;6.900;2022-09-12T09:32:43;5.35;;;2.80;;
66567;SDS011;53422;49.296;6.900;2022-09-12T09:35:15;4.15;;;2.65;;
66567;SDS011;53422;49.296;6.900;2022-09-12T09:37:43;2.85;;;2.45;;
66567;SDS011;53422;49.296;6.900;2022-09-12T09:40:36;3.97;;;3.45;;
66567;SDS011;53422;49.296;6.900;2022-09-12T09:43:30;5.65;;;2.50;;
66567;SDS011;53422;49.296;6.900;2022-09-12T09:45:56;3.30;;;1.98;;
66567;SDS011;53422;49.296;6.900;2022-09-12T09:50:51;3.45;;;2.40;;
66567;SDS011;53422;49.296;6.900;2022-09-12T09:53:34;3.85;;;2.40;;
66567;SDS011;53422;49.296;6.900;2022-09-12T09:56:11;2.97;;;2.35;;
66567;SDS011;53422;49.296;6.900;2022-09-12T10:01:51;3.60;;;2.13;;
66567;SDS011;53422;49.296;6.900;2022-09-12T10:04:25;3.65;;;2.30;;
66567;SDS011;53422;49.296;6.900;2022-09-12T10:06:57;3.65;;;1.88;;
66567;SDS011;53422;49.296;6.900;2022-09-12T10:11:51;4.38;;;2.53;;
66567;SDS011;53422;49.296;6.900;2022-09-12T10:16:52;3.63;;;1.40;;
66567;SDS011;53422;49.296;6.900;2022-09-12T10:19:22;4.68;;;2.50;;
66567;SDS011;53422;49.296;6.900;2022-09-12T10:21:58;3.53;;;2.20;;
66567;SDS011;53422;49.296;6.900;2022-09-12T10:29:49;4.07;;;2.15;;
66567;SDS011;53422;49.296;6.900;2022-09-12T10:32:23;2.97;;;2.15;;
66567;SDS011;53422;49.296;6.900;2022-09-12T10:35:03;3.75;;;2.35;;
66567;SDS011;53422;49.296;6.900;2022-09-12T10:37:36;3.38;;;2.20;;
66567;SDS011;53422;49.296;6.900;2022-09-12T10:40:04;3.50;;;2.33;;
66567;SDS011;53422;49.296;6.900;2022-09-12T10:45:22;3.08;;;2.13;;
66567;SDS011;53422;49.296;6.900;2022-09-12T10:47:57;2.58;;;1.85;;
66567;SDS011;53422;49.296;6.900;2022-09-12T10:50:25;1.88;;;1.52;;
66567;SDS011;53422;49.296;6.900;2022-09-12T10:52:53;2.35;;;1.35;;
66567;SDS011;53422;49.296;6.900;2022-09-12T10:55:36;3.85;;;1.73;;
66567;SDS011;53422;49.296;6.900;2022-09-12T11:00:53;3.78;;;1.98;;
66567;SDS011;53422;49.296;6.900;2022-09-12T11:03:40;3.53;;;2.13;;
66567;SDS011;53422;49.296;6.900;2022-09-12T11:06:10;2.13;;;1.60;;
66567;SDS011;53422;49.296;6.900;2022-09-12T11:08:56;2.10;;;1.55;;
66567;SDS011;53422;49.296;6.900;2022-09-12T11:22:02;3.10;;;1.88;;
66567;SDS011;53422;49.296;6.900;2022-09-12T11:29:48;2.22;;;1.40;;
66567;SDS011;53422;49.296;6.900;2022-09-12T11:45:57;2.55;;;1.52;;
66567;SDS011;53422;49.296;6.900;2022-09-12T11:48:44;1.90;;;1.35;;
66567;SDS011;53422;49.296;6.900;2022-09-12T11:51:25;1.95;;;1.38;;
66567;SDS011;53422;49.296;6.900;2022-09-12T11:54:23;2.00;;;1.33;;
66567;SDS011;53422;49.296;6.900;2022-09-12T11:56:48;3.63;;;1.73;;
66567;SDS011;53422;49.296;6.900;2022-09-12T11:59:36;2.75;;;1.65;;
66567;SDS011;53422;49.296;6.900;2022-09-12T12:02:20;4.22;;;1.40;;
66567;SDS011;53422;49.296;6.900;2022-09-12T12:07:48;1.92;;;1.20;;
66567;SDS011;53422;49.296;6.900;2022-09-12T12:10:36;2.13;;;1.35;;
66567;SDS011;53422;49.296;6.900;2022-09-12T12:13:08;1.70;;;1.30;;
66567;SDS011;53422;49.296;6.900;2022-09-12T12:15:46;4.43;;;1.60;;
66567;SDS011;53422;49.296;6.900;2022-09-12T12:18:19;1.83;;;1.25;;
66567;SDS011;53422;49.296;6.900;2022-09-12T12:23:48;1.80;;;1.17;;
66567;SDS011;53422;49.296;6.900;2022-09-12T12:29:04;1.63;;;1.10;;
66567;SDS011;53422;49.296;6.900;2022-09-12T12:36:53;2.78;;;1.20;;
66567;SDS011;53422;49.296;6.900;2022-09-12T12:39:55;1.30;;;1.10;;
66567;SDS011;53422;49.296;6.900;2022-09-12T12:52:46;1.42;;;1.08;;
66567;SDS011;53422;49.296;6.900;2022-09-12T12:55:17;3.60;;;1.27;;
66567;SDS011;53422;49.296;6.900;2022-09-12T12:57:58;1.00;;;0.80;;
66567;SDS011;53422;49.296;6.900;2022-09-12T13:00:30;1.23;;;1.00;;
66567;SDS011;53422;49.296;6.900;2022-09-12T13:05:42;1.92;;;1.10;;
66567;SDS011;53422;49.296;6.900;2022-09-12T13:10:55;2.30;;;1.45;;
66567;SDS011;53422;49.296;6.900;2022-09-12T13:13:48;3.00;;;1.30;;
66567;SDS011;53422;49.296;6.900;2022-09-12T13:16:30;2.03;;;1.30;;
66567;SDS011;53422;49.296;6.900;2022-09-12T13:21:26;1.50;;;1.10;;
66567;SDS011;53422;49.296;6.900;2022-09-12T13:24:02;1.65;;;1.55;;
66567;SDS011;53422;49.296;6.900;2022-09-12T13:26:32;1.33;;;1.05;;
66567;SDS011;53422;49.296;6.900;2022-09-12T13:29:09;2.08;;;1.23;;
66567;SDS011;53422;49.296;6.900;2022-09-12T13:31:36;2.35;;;0.90;;
66567;SDS011;53422;49.296;6.900;2022-09-12T13:34:03;1.75;;;1.10;;
66567;SDS011;53422;49.296;6.900;2022-09-12T13:45:08;2.15;;;1.10;;
66567;SDS011;53422;49.296;6.900;2022-09-12T13:50:03;1.58;;;1.20;;
66567;SDS011;53422;49.296;6.900;2022-09-12T13:52:32;1.85;;;1.02;;
66567;SDS011;53422;49.296;6.900;2022-09-12T13:55:04;1.90;;;1.08;;
66567;SDS011;53422;49.296;6.900;2022-09-12T13:57:38;2.13;;;1.27;;
66567;SDS011;53422;49.296;6.900;2022-09-12T14:02:44;2.13;;;1.00;;
66567;SDS011;53422;49.296;6.900;2022-09-12T14:05:20;1.50;;;1.00;;
66567;SDS011;53422;49.296;6.900;2022-09-12T14:07:52;2.20;;;1.35;;
66567;SDS011;53422;49.296;6.900;2022-09-12T14:10:42;1.38;;;0.98;;
66567;SDS011;53422;49.296;6.900;2022-09-12T14:13:18;1.48;;;1.10;;
66567;SDS011;53422;49.296;6.900;2022-09-12T14:15:47;1.77;;;1.08;;
66567;SDS011;53422;49.296;6.900;2022-09-12T14:18:27;2.08;;;1.20;;
66567;SDS011;53422;49.296;6.900;2022-09-12T14:21:10;2.75;;;1.45;;
66567;SDS011;53422;49.296;6.900;2022-09-12T14:23:45;1.35;;;0.98;;
66567;SDS011;53422;49.296;6.900;2022-09-12T14:26:13;2.20;;;1.15;;
66567;SDS011;53422;49.296;6.900;2022-09-12T14:28:42;4.25;;;0.90;;
66567;SDS011;53422;49.296;6.900;2022-09-12T14:31:19;1.45;;;0.95;;
66567;SDS011;53422;49.296;6.900;2022-09-12T14:34:07;1.38;;;1.05;;
66567;SDS011;53422;49.296;6.900;2022-09-12T14:36:43;1.35;;;0.90;;
66567;SDS011;53422;49.296;6.900;2022-09-12T14:41:45;1.65;;;1.33;;
66567;SDS011;53422;49.296;6.900;2022-09-12T14:44:16;1.92;;;1.02;;
66567;SDS011;53422;49.296;6.900;2022-09-12T14:46:47;1.92;;;1.30;;
66567;SDS011;53422;49.296;6.900;2022-09-12T14:49:22;2.15;;;1.13;;
66567;SDS011;53422;49.296;6.900;2022-09-12T14:52:02;1.98;;;1.08;;
66567;SDS011;53422;49.296;6.900;2022-09-12T14:57:00;1.25;;;0.93;;
66567;SDS011;53422;49.296;6.900;2022-09-12T14:59:44;1.42;;;1.00;;
66567;SDS011;53422;49.296;6.900;2022-09-12T15:04:45;1.98;;;0.95;;
66567;SDS011;53422;49.296;6.900;2022-09-12T15:09:59;1.52;;;1.02;;
66567;SDS011;53422;49.296;6.900;2022-09-12T15:12:26;1.38;;;1.00;;
66567;SDS011;53422;49.296;6.900;2022-09-12T15:14:52;1.20;;;0.80;;
66567;SDS011;53422;49.296;6.900;2022-09-12T15:17:23;1.80;;;1.05;;
66567;SDS011;53422;49.296;6.900;2022-09-12T15:19:49;1.27;;;0.95;;
66567;SDS011;53422;49.296;6.900;2022-09-12T15:22:14;1.42;;;0.80;;
66567;SDS011;53422;49.296;6.900;2022-09-12T15:24:40;1.00;;;0.60;;
66567;SDS011;53422;49.296;6.900;2022-09-12T15:27:12;1.80;;;1.00;;
66567;SDS011;53422;49.296;6.900;2022-09-12T15:29:37;1.75;;;0.80;;
66567;SDS011;53422;49.296;6.900;2022-09-12T15:32:04;1.50;;;0.93;;
66567;SDS011;53422;49.296;6.900;2022-09-12T15:34:31;1.27;;;0.90;;
66567;SDS011;53422;49.296;6.900;2022-09-12T15:36:57;1.58;;;0.90;;
66567;SDS011;53422;49.296;6.900;2022-09-12T15:39:22;1.70;;;1.23;;
66567;SDS011;53422;49.296;6.900;2022-09-12T15:41:48;1.48;;;0.93;;
66567;SDS011;53422;49.296;6.900;2022-09-12T15:44:14;2.00;;;1.35;;
66567;SDS011;53422;49.296;6.900;2022-09-12T15:46:39;1.35;;;0.95;;
66567;SDS011;53422;49.296;6.900;2022-09-12T15:49:05;1.65;;;1.00;;
66567;SDS011;53422;49.296;6.900;2022-09-12T15:51:31;1.70;;;1.05;;
66567;SDS011;53422;49.296;6.900;2022-09-12T15:53:57;1.38;;;1.05;;
66567;SDS011;53422;49.296;6.900;2022-09-12T15:56:24;1.65;;;1.33;;
66567;SDS011;53422;49.296;6.900;2022-09-12T15:58:49;2.00;;;1.10;;
66567;SDS011;53422;49.296;6.900;2022-09-12T16:01:16;1.85;;;0.98;;
66567;SDS011;53422;49.296;6.900;2022-09-12T16:03:42;1.67;;;1.35;;
66567;SDS011;53422;49.296;6.900;2022-09-12T16:06:10;2.30;;;1.08;;
66567;SDS011;53422;49.296;6.900;2022-09-12T16:08:36;1.80;;;1.23;;
66567;SDS011;53422;49.296;6.900;2022-09-12T16:11:02;1.55;;;1.20;;
66567;SDS011;53422;49.296;6.900;2022-09-12T16:13:31;1.40;;;1.02;;
66567;SDS011;53422;49.296;6.900;2022-09-12T16:15:58;1.77;;;0.90;;
66567;SDS011;53422;49.296;6.900;2022-09-12T16:18:25;3.15;;;1.88;;
66567;SDS011;53422;49.296;6.900;2022-09-12T16:20:55;2.25;;;1.42;;
66567;SDS011;53422;49.296;6.900;2022-09-12T16:23:21;3.05;;;1.40;;
66567;SDS011;53422;49.296;6.900;2022-09-12T16:26:01;1.67;;;1.27;;
66567;SDS011;53422;49.296;6.900;2022-09-12T16:28:28;1.77;;;1.10;;
66567;SDS011;53422;49.296;6.900;2022-09-12T16:30:55;1.52;;;1.15;;
66567;SDS011;53422;49.296;6.900;2022-09-12T16:33:22;1.50;;;1.25;;
66567;SDS011;53422;49.296;6.900;2022-09-12T16:35:47;1.45;;;1.08;;
66567;SDS011;53422;49.296;6.900;2022-09-12T16:38:15;1.98;;;1.33;;
66567;SDS011;53422;49.296;6.900;2022-09-12T16:40:43;2.13;;;1.73;;
66567;SDS011;53422;49.296;6.900;2022-09-12T16:43:09;1.70;;;1.15;;
66567;SDS011;53422;49.296;6.900;2022-09-12T16:45:34;2.42;;;1.63;;
66567;SDS011;53422;49.296;6.900;2022-09-12T16:48:00;2.42;;;1.30;;
66567;SDS011;53422;49.296;6.900;2022-09-12T16:50:25;3.47;;;1.20;;
66567;SDS011;53422;49.296;6.900;2022-09-12T16:52:53;3.47;;;1.63;;
66567;SDS011;53422;49.296;6.900;2022-09-12T16:55:18;1.40;;;1.23;;
66567;SDS011;53422;49.296;6.900;2022-09-12T16:57:44;1.27;;;0.88;;
66567;SDS011;53422;49.296;6.900;2022-09-12T17:00:11;1.42;;;1.10;;
66567;SDS011;53422;49.296;6.900;2022-09-12T17:02:38;1.70;;;1.20;;
66567;SDS011;53422;49.296;6.900;2022-09-12T17:05:03;1.75;;;1.15;;
66567;SDS011;53422;49.296;6.900;2022-09-12T17:07:29;1.83;;;1.23;;
66567;SDS011;53422;49.296;6.900;2022-09-12T17:09:55;2.47;;;1.38;;
66567;SDS011;53422;49.296;6.900;2022-09-12T17:12:21;2.92;;;1.17;;
66567;SDS011;53422;49.296;6.900;2022-09-12T17:14:47;2.10;;;1.38;;
66567;SDS011;53422;49.296;6.900;2022-09-12T17:17:13;2.15;;;1.35;;
66567;SDS011;53422;49.296;6.900;2022-09-12T17:19:39;2.40;;;1.20;;
66567;SDS011;53422;49.296;6.900;2022-09-12T17:22:05;2.22;;;1.45;;
66567;SDS011;53422;49.296;6.900;2022-09-12T17:24:30;3.22;;;1.30;;
66567;SDS011;53422;49.296;6.900;2022-09-12T17:26:57;1.63;;;1.20;;
66567;SDS011;53422;49.296;6.900;2022-09-12T17:29:23;2.40;;;1.33;;
66567;SDS011;53422;49.296;6.900;2022-09-12T17:31:49;1.65;;;1.35;;
66567;SDS011;53422;49.296;6.900;2022-09-12T17:34:15;19.08;;;3.42;;
66567;SDS011;53422;49.296;6.900;2022-09-12T17:36:41;4.07;;;1.55;;
66567;SDS011;53422;49.296;6.900;2022-09-12T17:39:08;7.15;;;1.65;;
66567;SDS011;53422;49.296;6.900;2022-09-12T17:41:35;2.53;;;1.60;;
66567;SDS011;53422;49.296;6.900;2022-09-12T17:44:01;2.53;;;1.60;;
66567;SDS011;53422;49.296;6.900;2022-09-12T17:46:32;3.25;;;1.58;;
66567;SDS011;53422;49.296;6.900;2022-09-12T17:48:59;2.50;;;1.55;;
66567;SDS011;53422;49.296;6.900;2022-09-12T17:51:26;2.10;;;1.20;;
66567;SDS011;53422;49.296;6.900;2022-09-12T17:53:58;6.35;;;1.40;;
66567;SDS011;53422;49.296;6.900;2022-09-12T17:56:26;2.97;;;1.58;;
66567;SDS011;53422;49.296;6.900;2022-09-12T18:01:19;4.40;;;1.30;;
66567;SDS011;53422;49.296;6.900;2022-09-12T18:04:11;11.13;;;2.17;;
66567;SDS011;53422;49.296;6.900;2022-09-12T18:06:37;3.75;;;1.33;;
66567;SDS011;53422;49.296;6.900;2022-09-12T18:11:31;5.10;;;1.98;;
66567;SDS011;53422;49.296;6.900;2022-09-12T18:13:58;7.35;;;1.30;;
66567;SDS011;53422;49.296;6.900;2022-09-12T18:16:24;7.03;;;1.48;;
66567;SDS011;53422;49.296;6.900;2022-09-12T18:18:50;2.63;;;1.35;;
66567;SDS011;53422;49.296;6.900;2022-09-12T18:21:16;10.38;;;1.63;;
66567;SDS011;53422;49.296;6.900;2022-09-12T18:23:42;5.32;;;1.23;;
66567;SDS011;53422;49.296;6.900;2022-09-12T18:26:08;2.35;;;1.60;;
66567;SDS011;53422;49.296;6.900;2022-09-12T18:28:37;2.75;;;1.65;;